Portada
METAR-TAF:

METAR-TAF

Aeropuertos :

Aeropuerto de Karup

Karup, Dinamarca

latitud: 56-18N, longitud: 009-07E, altitud: 52 m

Observación

El informe se hizo hace 15 minutos, a las 03:20 UTC
Viento 6 kt del oeste-suroeste
Temperatura 8°C
Humedad 93%
Presión 1010 hPa
Visibilidad 10 km o más

METAR: EKKA 080320Z AUTO 24006KT 9999 FEW053/// 08/07 Q1010

Hora: 05:35 (03:35 UTC)

Pronóstico

El informe se hizo hace 1 hora y 17 minutos, a las 02:18 UTC
Pronóstico válido del 08 a las 03 UTC al 09 a las 03 UTC
Viento 10 kt del oeste
Visibilidad 10 km o más
Cielo nuboso a una altura de 5000 ft
Temporalmente
del 08 a las 03 UTC al 08 a las 14 UTC
Nubes dispersas a una altura de 2500 ft, Cumulus congestus.
chaparrones de lluvia

TAF: EKKA 080218Z 0803/0903 26010KT 9999 BKN050 TEMPO 0803/0814 -SHRA SCT025TCU

Observaciones y pronósticos meteorológicos de más de 4000 aeropuertos (mensajes METAR y TAF).

Los puntos amarillos y rojos representan las estaciones disponibles.

Ponga el ratón en el punto deseado para ver el nombre de la estación.

Haga clic para ver las observaciones y los pronósticos meteorológicos.

Para cambiar el mapa : haga clic en los botones verdes con una cruz de color negro para hacer un zoom, en el botón verde con un guión para alejar o en las flechas verdes para mapas adyacentes.


METAR-TAF: